createdAt,value
2019-06-10T00:00:28.004Z,50.12
2019-06-10T00:02:04.208Z,50.01
2019-06-10T00:03:42.178Z,49.92
2019-06-10T00:05:17.734Z,49.89
2019-06-10T00:06:52.399Z,49.86
2019-06-10T00:08:27.641Z,49.89
2019-06-10T00:10:04.057Z,49.59
2019-06-10T00:11:41.095Z,49.64
2019-06-10T00:13:15.929Z,49.66
2019-06-10T00:14:51.142Z,49.73
2019-06-10T00:16:25.813Z,49.82
2019-06-10T00:18:18.993Z,49.82
2019-06-10T00:19:37.454Z,49.72
2019-06-10T00:21:12.692Z,49.67
2019-06-10T00:22:47.334Z,49.78
2019-06-10T00:24:22.870Z,49.82
2019-06-10T00:25:57.926Z,50.08
2019-06-10T00:27:33.313Z,49.85
2019-06-10T00:29:09.689Z,49.98
2019-06-10T00:30:44.880Z,50.05
2019-06-10T00:32:21.461Z,49.99
2019-06-10T00:33:56.493Z,49.96
2019-06-10T00:35:31.580Z,50.00
2019-06-10T00:37:09.219Z,50.03
2019-06-10T00:38:43.322Z,50.01
2019-06-10T00:40:21.275Z,50.17
2019-06-10T00:41:55.011Z,50.18
2019-06-10T00:43:30.706Z,50.35
2019-06-10T00:45:08.177Z,50.37
2019-06-10T00:46:43.079Z,50.45
2019-06-10T00:48:26.176Z,50.47
2019-06-10T00:49:54.727Z,50.50
2019-06-10T00:51:31.400Z,50.49
2019-06-10T00:53:07.540Z,50.68
2019-06-10T00:54:42.242Z,50.63
2019-06-10T00:56:17.498Z,50.55
2019-06-10T00:57:52.460Z,50.61
2019-06-10T00:59:27.684Z,50.80
2019-06-10T01:01:02.949Z,51.07
2019-06-10T01:02:41.064Z,51.10
2019-06-10T01:04:16.506Z,50.95
2019-06-10T01:05:51.926Z,51.02
2019-06-10T01:07:26.584Z,51.16
2019-06-10T01:09:02.589Z,51.34
2019-06-10T01:10:38.739Z,51.60
2019-06-10T01:12:14.916Z,51.33
2019-06-10T01:13:50.824Z,51.29
2019-06-10T01:15:26.203Z,51.58
2019-06-10T01:17:01.342Z,51.87
2019-06-10T01:18:38.566Z,51.93
2019-06-10T01:20:15.683Z,51.81
2019-06-10T01:21:51.178Z,51.82
2019-06-10T01:23:26.024Z,51.90
2019-06-10T01:25:01.767Z,52.04
2019-06-10T01:26:36.480Z,51.96
2019-06-10T01:28:14.713Z,52.15
2019-06-10T01:29:48.085Z,52.06
2019-06-10T01:31:24.391Z,51.93
2019-06-10T01:33:01.058Z,52.22
2019-06-10T01:34:36.130Z,52.22
2019-06-10T01:36:13.261Z,52.33
2019-06-10T01:37:47.734Z,51.95
2019-06-10T01:39:22.754Z,52.13
2019-06-10T01:40:58.103Z,51.99
2019-06-10T01:42:32.728Z,52.26
2019-06-10T01:44:08.460Z,52.45
2019-06-10T01:45:43.172Z,52.21
2019-06-10T01:47:18.473Z,52.36
2019-06-10T01:48:53.107Z,52.47
2019-06-10T01:50:28.368Z,52.75
2019-06-10T01:52:03.017Z,52.82
2019-06-10T01:53:38.272Z,52.76
2019-06-10T01:55:14.992Z,52.70
2019-06-10T01:56:51.074Z,52.68
2019-06-10T01:58:25.955Z,52.70
2019-06-10T02:00:09.021Z,52.67
2019-06-10T02:01:45.189Z,52.97
2019-06-10T02:03:23.700Z,52.88
2019-06-10T02:04:56.754Z,53.12
2019-06-10T02:06:31.999Z,53.32
2019-06-10T02:08:06.736Z,53.16
2019-06-10T02:09:41.981Z,53.43
2019-06-10T02:11:18.773Z,53.56
2019-06-10T02:12:53.767Z,53.51
2019-06-10T02:14:31.557Z,53.44
2019-06-10T02:16:07.002Z,53.66
2019-06-10T02:17:41.840Z,53.56
2019-06-10T02:19:18.593Z,54.00
2019-06-10T02:20:53.355Z,53.90
2019-06-10T02:22:31.672Z,54.15
2019-06-10T02:24:06.289Z,54.03
2019-06-10T02:25:42.588Z,54.18
2019-06-10T02:27:17.470Z,54.38
2019-06-10T02:28:52.825Z,54.41
2019-06-10T02:30:39.986Z,54.37
2019-06-10T02:32:05.327Z,54.44
2019-06-10T02:33:41.974Z,54.34
2019-06-10T02:35:27.254Z,54.16
2019-06-10T02:36:53.911Z,54.43
2019-06-10T02:38:37.938Z,54.73
2019-06-10T02:40:06.594Z,54.72
2019-06-10T02:41:44.585Z,54.76
2019-06-10T02:43:28.530Z,54.84
2019-06-10T02:44:57.634Z,54.99
2019-06-10T02:46:36.206Z,55.15
2019-06-10T02:48:12.885Z,55.17
2019-06-10T02:49:57.628Z,55.02
2019-06-10T02:51:30.209Z,55.33
2019-06-10T02:53:03.880Z,55.33
2019-06-10T02:54:37.637Z,55.59
2019-06-10T02:56:14.639Z,55.69
2019-06-10T02:57:49.599Z,55.41
2019-06-10T02:59:27.463Z,55.62
2019-06-10T03:01:04.191Z,55.88
2019-06-10T03:02:37.654Z,55.86
2019-06-10T03:04:13.692Z,55.97
2019-06-10T03:05:48.625Z,56.68
2019-06-10T03:07:28.384Z,56.50
2019-06-10T03:09:03.422Z,56.86
2019-06-10T03:10:38.952Z,57.14
2019-06-10T03:12:13.677Z,57.10
2019-06-10T03:13:48.919Z,56.40
2019-06-10T03:15:25.144Z,56.00
2019-06-10T03:17:03.198Z,55.89
2019-06-10T03:18:37.938Z,56.23
2019-06-10T03:20:13.193Z,56.46
2019-06-10T03:21:47.873Z,56.09
2019-06-10T03:23:26.107Z,56.87
2019-06-10T03:25:02.781Z,56.34
2019-06-10T03:26:37.397Z,56.06
2019-06-10T03:28:12.149Z,56.23
2019-06-10T03:29:47.368Z,56.44
2019-06-10T03:31:28.358Z,56.66
2019-06-10T03:32:58.985Z,56.77
2019-06-10T03:34:41.494Z,57.27
2019-06-10T03:36:12.444Z,56.96
2019-06-10T03:37:47.671Z,56.88
2019-06-10T03:39:23.872Z,56.94
2019-06-10T03:41:02.993Z,57.02
2019-06-10T03:42:38.303Z,57.15
2019-06-10T03:44:13.339Z,57.37
2019-06-10T03:45:48.689Z,57.11
2019-06-10T03:47:24.272Z,57.30
2019-06-10T03:49:00.277Z,57.31
2019-06-10T03:50:34.937Z,57.32
2019-06-10T03:52:10.232Z,57.47
2019-06-10T03:53:46.068Z,57.54
2019-06-10T03:55:24.894Z,57.46
2019-06-10T03:56:57.636Z,57.67
2019-06-10T03:58:33.035Z,57.43
2019-06-10T04:00:13.314Z,56.92
2019-06-10T04:01:44.860Z,56.64
2019-06-10T04:03:19.595Z,56.29
2019-06-10T04:04:54.883Z,55.60
2019-06-10T04:06:29.718Z,55.19
2019-06-10T04:08:06.241Z,55.41
2019-06-10T04:09:42.542Z,55.06
2019-06-10T04:11:17.971Z,55.22
2019-06-10T04:12:52.686Z,55.17
2019-06-10T04:14:28.525Z,55.43
2019-06-10T04:16:04.256Z,55.34
2019-06-10T04:17:39.495Z,55.59
2019-06-10T04:19:14.144Z,55.93
2019-06-10T04:20:49.567Z,54.89
2019-06-10T04:22:26.584Z,54.61
2019-06-10T04:24:02.266Z,54.99
2019-06-10T04:25:42.599Z,55.60
2019-06-10T04:27:17.742Z,55.05
2019-06-10T04:28:52.992Z,54.99
2019-06-10T04:30:29.288Z,55.34
2019-06-10T04:32:04.182Z,55.35
2019-06-10T04:33:39.443Z,54.74
2019-06-10T04:35:14.163Z,54.48
2019-06-10T04:36:49.395Z,54.42
2019-06-10T04:38:26.033Z,54.06
2019-06-10T04:40:02.794Z,54.46
2019-06-10T04:41:37.446Z,53.91
2019-06-10T04:43:12.970Z,54.80
2019-06-10T04:44:49.421Z,54.17
2019-06-10T04:46:26.401Z,54.85
2019-06-10T04:48:03.033Z,54.31
2019-06-10T04:49:38.026Z,54.45
2019-06-10T04:51:13.110Z,54.33
2019-06-10T04:52:48.372Z,54.02
2019-06-10T04:54:24.847Z,53.94
2019-06-10T04:56:02.703Z,53.94
2019-06-10T04:57:36.739Z,53.21
2019-06-10T04:59:13.031Z,50.90
2019-06-10T05:00:47.695Z,52.63
2019-06-10T05:02:25.568Z,52.05
2019-06-10T05:03:59.668Z,50.89
2019-06-10T05:05:36.885Z,46.83
2019-06-10T05:07:12.576Z,41.49
2019-06-10T05:08:47.989Z,39.87
2019-06-10T05:10:24.095Z,34.41
2019-06-10T05:11:59.602Z,31.13
2019-06-10T05:13:34.268Z,32.40
2019-06-10T05:15:09.763Z,30.68
2019-06-10T05:16:45.072Z,31.30
2019-06-10T05:18:23.849Z,31.73
2019-06-10T05:19:56.890Z,27.57
2019-06-10T05:21:33.774Z,27.16
2019-06-10T05:23:08.550Z,31.04
2019-06-10T05:24:43.781Z,27.29
2019-06-10T05:26:19.911Z,29.13
2019-06-10T05:27:55.368Z,30.15
2019-06-10T05:29:31.229Z,30.01
2019-06-10T05:31:06.560Z,30.28
2019-06-10T05:32:43.191Z,30.55
2019-06-10T05:34:18.253Z,28.92
2019-06-10T05:35:53.035Z,25.93
2019-06-10T05:37:29.351Z,26.95
2019-06-10T05:39:05.778Z,24.63
2019-06-10T05:40:42.756Z,25.65
2019-06-10T05:42:17.577Z,30.54
2019-06-10T05:43:52.871Z,32.38
2019-06-10T05:45:29.011Z,30.63
2019-06-10T05:47:04.428Z,34.56
2019-06-10T05:48:39.095Z,32.72
2019-06-10T05:50:14.632Z,28.57
2019-06-10T05:51:49.249Z,23.23
2019-06-10T05:53:25.053Z,23.54
2019-06-10T05:55:02.945Z,22.64
2019-06-10T05:56:37.898Z,25.62
2019-06-10T05:58:12.976Z,29.58
2019-06-10T05:59:48.320Z,34.81
2019-06-10T06:01:24.273Z,36.91
2019-06-10T06:02:59.880Z,34.52
2019-06-10T06:04:36.098Z,34.61
2019-06-10T06:06:12.510Z,33.85
2019-06-10T06:08:01.298Z,36.40
2019-06-10T06:09:25.112Z,42.47
2019-06-10T06:10:59.844Z,42.68
2019-06-10T06:12:35.769Z,41.89
2019-06-10T06:14:13.022Z,43.16
2019-06-10T06:15:47.448Z,44.78
2019-06-10T06:17:23.589Z,45.86
2019-06-10T06:18:58.893Z,47.27
2019-06-10T06:20:35.759Z,47.15
2019-06-10T06:22:12.598Z,48.22
2019-06-10T06:23:47.804Z,48.75
2019-06-10T06:25:24.216Z,49.03
2019-06-10T06:26:58.948Z,49.27
2019-06-10T06:28:35.988Z,50.69
2019-06-10T06:30:16.245Z,50.09
2019-06-10T06:31:47.822Z,50.96
2019-06-10T06:33:22.455Z,48.58
2019-06-10T06:34:57.708Z,46.83
2019-06-10T06:36:34.696Z,48.56
2019-06-10T06:38:09.306Z,49.25
2019-06-10T06:39:44.019Z,47.83
2019-06-10T06:41:19.236Z,48.12
2019-06-10T06:42:53.903Z,48.41
2019-06-10T06:44:29.635Z,44.91
2019-06-10T06:46:04.275Z,46.87
2019-06-10T06:47:39.519Z,45.82
2019-06-10T06:49:14.220Z,46.75
2019-06-10T06:51:01.984Z,45.53
2019-06-10T06:52:46.662Z,45.19
2019-06-10T06:54:03.375Z,45.10
2019-06-10T06:55:39.761Z,46.02
2019-06-10T06:57:15.498Z,46.12
2019-06-10T06:58:52.247Z,46.92
2019-06-10T07:00:51.396Z,46.84
2019-06-10T07:02:12.381Z,46.64
2019-06-10T07:03:47.068Z,46.74
2019-06-10T07:05:22.942Z,46.75
2019-06-10T07:06:57.613Z,47.39
2019-06-10T07:08:36.246Z,46.90
2019-06-10T07:10:12.249Z,45.50
2019-06-10T07:11:47.688Z,42.90
2019-06-10T07:13:22.424Z,42.65
2019-06-10T07:14:57.641Z,43.29
2019-06-10T07:16:34.589Z,44.43
2019-06-10T07:18:09.569Z,45.58
2019-06-10T07:19:45.894Z,46.62
2019-06-10T07:21:22.811Z,44.84
2019-06-10T07:22:57.620Z,43.36
2019-06-10T07:24:36.014Z,43.10
2019-06-10T07:26:09.207Z,33.81
2019-06-10T07:27:46.983Z,28.46
2019-06-10T07:29:22.568Z,27.80
2019-06-10T07:30:57.992Z,25.94
2019-06-10T07:32:34.294Z,21.42
2019-06-10T07:34:09.569Z,25.72
2019-06-10T07:35:45.484Z,22.56
2019-06-10T07:37:22.996Z,28.77
2019-06-10T07:38:57.356Z,28.43
2019-06-10T07:40:34.400Z,21.96
2019-06-10T07:42:08.941Z,21.47
2019-06-10T07:43:49.417Z,23.55
2019-06-10T07:45:22.163Z,22.88
2019-06-10T07:46:57.527Z,25.27
2019-06-10T07:48:34.477Z,23.43
2019-06-10T07:50:12.014Z,30.75
2019-06-10T07:51:46.585Z,31.95
2019-06-10T07:53:22.339Z,35.57
2019-06-10T07:54:57.216Z,35.18
2019-06-10T07:56:37.253Z,33.33
2019-06-10T07:58:08.937Z,27.58
2019-06-10T07:59:45.776Z,23.30
2019-06-10T08:01:23.034Z,20.64
2019-06-10T08:02:57.759Z,21.29
2019-06-10T08:04:33.570Z,21.68
2019-06-10T08:06:09.476Z,19.16
2019-06-10T08:07:47.166Z,17.88
2019-06-10T08:09:22.766Z,19.30
2019-06-10T08:10:57.901Z,19.75
2019-06-10T08:12:33.161Z,19.50
2019-06-10T08:14:08.784Z,20.14
2019-06-10T08:15:45.974Z,23.99
2019-06-10T08:17:22.394Z,23.69
2019-06-10T08:19:22.261Z,20.37
2019-06-10T08:20:47.477Z,22.13
2019-06-10T08:22:34.313Z,22.36
2019-06-10T08:23:59.448Z,20.05
2019-06-10T08:25:36.833Z,22.78
2019-06-10T08:27:12.051Z,23.57
2019-06-10T08:28:48.329Z,25.20
2019-06-10T08:30:27.547Z,26.41
2019-06-10T08:32:03.300Z,23.19
2019-06-10T08:33:38.938Z,25.53
2019-06-10T08:35:14.214Z,23.67
2019-06-10T08:36:50.717Z,21.69
2019-06-10T08:38:27.318Z,26.07
2019-06-10T08:40:03.792Z,25.50
2019-06-10T08:41:38.936Z,24.24
2019-06-10T08:43:13.757Z,22.86
2019-06-10T08:44:48.982Z,23.90
2019-06-10T08:46:23.683Z,24.10
2019-06-10T08:47:59.066Z,23.86
2019-06-10T08:49:33.737Z,25.12
2019-06-10T08:51:08.949Z,27.84
2019-06-10T08:52:53.774Z,29.79
2019-06-10T08:54:23.268Z,28.03
2019-06-10T08:55:56.910Z,28.77
2019-06-10T08:57:33.482Z,26.92
2019-06-10T08:59:08.674Z,30.35
2019-06-10T09:00:46.259Z,29.63
2019-06-10T09:02:22.879Z,33.33
2019-06-10T09:03:57.248Z,32.08
2019-06-10T09:05:32.391Z,31.67
2019-06-10T09:07:07.768Z,33.43
2019-06-10T09:08:46.422Z,34.27
2019-06-10T09:10:22.525Z,32.52
2019-06-10T09:11:56.505Z,35.52
2019-06-10T09:13:33.607Z,31.96
2019-06-10T09:15:08.102Z,33.86
2019-06-10T09:16:46.074Z,35.18
2019-06-10T09:18:22.653Z,36.10
2019-06-10T09:19:56.664Z,37.55
2019-06-10T09:21:33.074Z,35.42
2019-06-10T09:23:21.030Z,35.62
2019-06-10T09:24:48.730Z,33.81
2019-06-10T09:26:22.894Z,33.09
2019-06-10T09:27:57.781Z,34.27
2019-06-10T09:29:33.042Z,31.62
2019-06-10T09:31:07.653Z,32.98
2019-06-10T09:32:48.439Z,33.99
2019-06-10T09:34:19.251Z,32.70
2019-06-10T09:35:55.129Z,33.97
2019-06-10T09:37:31.927Z,31.84
2019-06-10T09:39:09.554Z,35.87
2019-06-10T09:40:53.611Z,32.97
2019-06-10T09:42:27.147Z,33.74
2019-06-10T09:44:03.299Z,33.63
2019-06-10T09:45:38.658Z,31.49
2019-06-10T09:47:14.616Z,34.19
2019-06-10T09:48:53.621Z,32.72
2019-06-10T09:50:41.227Z,30.21
2019-06-10T09:52:17.489Z,32.28
2019-06-10T09:54:02.339Z,32.61
2019-06-10T09:55:33.324Z,33.36
2019-06-10T09:57:08.116Z,32.20
2019-06-10T09:58:46.062Z,33.57
2019-06-10T10:00:33.140Z,32.96
2019-06-10T10:02:08.552Z,31.82
2019-06-10T10:03:49.179Z,32.17
2019-06-10T10:05:23.377Z,34.53
2019-06-10T10:06:57.642Z,34.74
2019-06-10T10:08:35.970Z,32.37
2019-06-10T10:10:12.849Z,33.12
2019-06-10T10:11:49.272Z,35.89
2019-06-10T10:13:24.800Z,33.44
2019-06-10T10:15:16.329Z,32.13
2019-06-10T10:16:36.643Z,32.06
2019-06-10T10:18:13.382Z,33.86
2019-06-10T10:19:50.310Z,33.36
2019-06-10T10:21:25.985Z,31.81
2019-06-10T10:23:02.658Z,32.66
2019-06-10T10:24:37.679Z,33.58
2019-06-10T10:26:14.176Z,35.08
2019-06-10T10:27:53.169Z,34.47
2019-06-10T10:29:25.873Z,35.77
2019-06-10T10:31:03.571Z,36.28
2019-06-10T10:32:37.717Z,34.11
2019-06-10T10:34:13.634Z,34.98
2019-06-10T10:35:49.316Z,34.72
2019-06-10T10:37:25.336Z,32.66
2019-06-10T10:39:02.287Z,32.83
2019-06-10T10:40:38.629Z,32.06
2019-06-10T10:42:13.285Z,33.87
2019-06-10T10:43:51.219Z,32.50
2019-06-10T10:45:25.499Z,35.08
2019-06-10T10:47:03.493Z,34.03
2019-06-10T10:48:37.124Z,32.90
2019-06-10T10:50:13.892Z,33.85
2019-06-10T10:51:49.062Z,34.02
2019-06-10T10:53:24.425Z,35.68
2019-06-10T10:54:59.096Z,34.64
2019-06-10T10:56:34.349Z,35.24
2019-06-10T10:58:09.141Z,36.41
2019-06-10T10:59:45.087Z,35.47
2019-06-10T11:01:23.629Z,35.54
2019-06-10T11:02:57.772Z,34.91
2019-06-10T11:04:32.986Z,36.40
2019-06-10T11:06:08.394Z,36.52
2019-06-10T11:07:44.476Z,36.81
2019-06-10T11:09:23.145Z,36.86
2019-06-10T11:11:01.000Z,37.99
2019-06-10T11:12:35.859Z,37.27
2019-06-10T11:14:10.537Z,36.65
2019-06-10T11:15:47.286Z,39.55
2019-06-10T11:17:22.683Z,38.06
2019-06-10T11:18:58.186Z,36.40
2019-06-10T11:20:33.679Z,36.65
2019-06-10T11:22:09.101Z,36.59
2019-06-10T11:23:43.948Z,37.88
2019-06-10T11:25:19.447Z,38.73
2019-06-10T11:26:56.489Z,37.21
2019-06-10T11:28:32.188Z,36.62
2019-06-10T11:30:07.581Z,36.72
2019-06-10T11:31:42.968Z,37.44
2019-06-10T11:33:17.724Z,37.63
2019-06-10T11:34:56.745Z,37.80
2019-06-10T11:36:29.467Z,38.35
2019-06-10T11:38:04.762Z,37.79
2019-06-10T11:39:39.524Z,37.18
2019-06-10T11:41:14.759Z,37.46
2019-06-10T11:42:50.525Z,37.16
2019-06-10T11:44:26.407Z,38.33
2019-06-10T11:46:06.758Z,38.33
2019-06-10T11:47:38.002Z,38.67
2019-06-10T11:49:12.734Z,37.83
2019-06-10T11:50:49.151Z,37.96
2019-06-10T11:52:23.840Z,37.45
2019-06-10T11:53:59.162Z,38.33
2019-06-10T11:55:33.916Z,38.32
2019-06-10T11:57:09.192Z,38.44
2019-06-10T11:58:43.929Z,37.45
2019-06-10T12:00:19.382Z,36.86
2019-06-10T12:01:59.205Z,37.40
2019-06-10T12:03:30.950Z,37.72
2019-06-10T12:05:06.125Z,37.15
2019-06-10T12:06:42.626Z,38.39
2019-06-10T12:08:17.393Z,37.04
2019-06-10T12:09:55.067Z,37.00
2019-06-10T12:11:28.995Z,38.66
2019-06-10T12:13:07.248Z,38.63
2019-06-10T12:14:43.160Z,38.76
2019-06-10T12:17:14.987Z,36.13
2019-06-10T12:18:00.767Z,36.32
2019-06-10T12:19:34.105Z,37.19
2019-06-10T12:21:08.197Z,36.39
2019-06-10T12:22:43.413Z,35.56
2019-06-10T12:24:23.046Z,37.62
2019-06-10T12:25:58.237Z,36.16
2019-06-10T12:27:32.917Z,37.28
2019-06-10T12:29:12.240Z,37.76
2019-06-10T12:30:44.530Z,37.04
2019-06-10T12:32:22.387Z,36.93
2019-06-10T12:33:57.629Z,37.13
2019-06-10T12:35:33.444Z,37.79
2019-06-10T12:37:12.978Z,37.86
2019-06-10T12:38:45.485Z,37.29
2019-06-10T12:40:20.394Z,38.27
2019-06-10T12:41:57.986Z,37.75
2019-06-10T12:43:32.560Z,39.00
2019-06-10T12:45:08.929Z,39.32
2019-06-10T12:46:43.549Z,38.87
2019-06-10T12:48:18.778Z,38.30
2019-06-10T12:49:55.725Z,38.19
2019-06-10T12:51:32.300Z,38.61
2019-06-10T12:53:07.400Z,38.15
2019-06-10T12:54:42.766Z,38.31
2019-06-10T12:56:18.476Z,38.21
2019-06-10T12:57:54.382Z,38.24
2019-06-10T12:59:29.436Z,38.24
2019-06-10T13:01:06.208Z,39.27
2019-06-10T13:02:42.746Z,39.06
2019-06-10T13:04:17.998Z,38.57
2019-06-10T13:05:53.519Z,38.98
2019-06-10T13:07:29.117Z,38.16
2019-06-10T13:09:06.479Z,39.27
2019-06-10T13:10:43.078Z,38.10
2019-06-10T13:12:17.787Z,38.71
2019-06-10T13:13:53.180Z,38.82
2019-06-10T13:15:28.889Z,38.29
2019-06-10T13:17:05.781Z,38.08
2019-06-10T13:18:40.522Z,39.13
2019-06-10T13:20:15.812Z,39.78
2019-06-10T13:21:52.783Z,41.42
2019-06-10T13:23:31.903Z,41.38
2019-06-10T13:25:04.794Z,40.30
2019-06-10T13:26:40.003Z,39.43
2019-06-10T13:28:14.704Z,39.64
2019-06-10T13:29:53.239Z,39.70
2019-06-10T13:31:28.371Z,41.55
2019-06-10T13:33:10.933Z,42.24
2019-06-10T13:34:42.761Z,41.35
2019-06-10T13:36:18.082Z,41.17
2019-06-10T13:37:52.911Z,41.44
2019-06-10T13:39:28.277Z,41.91
2019-06-10T13:41:04.270Z,41.19
2019-06-10T13:42:42.216Z,41.06
2019-06-10T13:44:16.794Z,42.22
2019-06-10T13:45:53.154Z,42.01
2019-06-10T13:47:29.447Z,41.34
2019-06-10T13:49:08.625Z,39.57
2019-06-10T13:50:42.356Z,39.31
2019-06-10T13:52:18.485Z,40.82
2019-06-10T13:53:53.820Z,40.65
2019-06-10T13:55:29.184Z,40.78
2019-06-10T13:57:06.603Z,40.86
2019-06-10T13:58:45.071Z,40.21
2019-06-10T14:00:18.034Z,39.98
2019-06-10T14:01:53.343Z,40.51
2019-06-10T14:03:27.964Z,39.75
2019-06-10T14:05:10.315Z,38.62
2019-06-10T14:06:47.050Z,38.96
2019-06-10T14:08:16.538Z,40.12
2019-06-10T14:09:51.292Z,39.44
2019-06-10T14:11:29.858Z,39.63
2019-06-10T14:13:03.982Z,39.03
2019-06-10T14:14:42.388Z,39.41
2019-06-10T14:16:16.246Z,39.71
2019-06-10T14:17:52.735Z,40.70
2019-06-10T14:19:27.488Z,40.87
2019-06-10T14:21:06.637Z,42.03
2019-06-10T14:22:39.130Z,42.86
2019-06-10T14:24:16.165Z,42.06
2019-06-10T14:25:52.648Z,42.44
2019-06-10T14:27:27.689Z,41.46
2019-06-10T14:29:03.888Z,43.54
2019-06-10T14:30:39.289Z,44.41
2019-06-10T14:32:15.654Z,44.31
2019-06-10T14:33:53.261Z,44.97
2019-06-10T14:35:27.552Z,44.88
2019-06-10T14:37:03.754Z,45.41
2019-06-10T14:38:38.468Z,45.30
2019-06-10T14:40:20.922Z,44.12
2019-06-10T14:41:52.279Z,45.31
2019-06-10T14:43:27.692Z,45.68
2019-06-10T14:45:02.321Z,45.08
2019-06-10T14:46:37.565Z,44.50
2019-06-10T14:48:15.653Z,44.42
2019-06-10T14:49:49.138Z,42.77
2019-06-10T14:51:23.781Z,44.24
2019-06-10T14:52:59.095Z,44.19
2019-06-10T14:54:33.753Z,42.55
2019-06-10T14:56:09.828Z,42.89
2019-06-10T14:57:45.301Z,43.56
2019-06-10T14:59:22.398Z,42.74
2019-06-10T15:00:56.872Z,42.36
2019-06-10T15:02:33.437Z,42.43
2019-06-10T15:04:08.255Z,42.74
2019-06-10T15:05:43.495Z,42.45
2019-06-10T15:07:18.133Z,42.86
2019-06-10T15:08:54.412Z,42.63
2019-06-10T15:10:29.075Z,43.64
2019-06-10T15:12:04.636Z,44.85
2019-06-10T15:13:39.304Z,44.32
2019-06-10T15:15:16.250Z,44.76
2019-06-10T15:16:53.476Z,43.64
2019-06-10T15:18:28.014Z,44.61
2019-06-10T15:20:03.698Z,43.12
2019-06-10T15:21:40.213Z,43.30
2019-06-10T15:23:18.476Z,44.03
2019-06-10T15:24:53.252Z,44.76
2019-06-10T15:26:28.085Z,44.57
2019-06-10T15:28:03.384Z,43.80
2019-06-10T15:29:39.335Z,44.03
2019-06-10T15:31:16.459Z,44.41
2019-06-10T15:32:52.428Z,44.96
2019-06-10T15:34:28.160Z,46.06
2019-06-10T15:36:02.874Z,45.66
2019-06-10T15:37:38.376Z,45.72
2019-06-10T15:39:16.364Z,45.72
2019-06-10T15:40:52.767Z,45.18
2019-06-10T15:42:26.564Z,44.58
2019-06-10T15:44:02.563Z,45.33
2019-06-10T15:45:37.730Z,45.04
2019-06-10T15:47:16.105Z,46.08
2019-06-10T15:48:49.436Z,45.37
2019-06-10T15:50:27.531Z,45.26
2019-06-10T15:52:03.308Z,45.45
2019-06-10T15:53:38.088Z,45.42
2019-06-10T15:55:23.966Z,46.14
2019-06-10T15:56:55.784Z,45.28
2019-06-10T15:58:26.313Z,45.69
2019-06-10T16:00:04.264Z,46.39
2019-06-10T16:01:39.268Z,46.56
2019-06-10T16:03:17.133Z,46.44
2019-06-10T16:04:52.697Z,45.86
2019-06-10T16:06:28.012Z,47.34
2019-06-10T16:08:02.731Z,46.34
2019-06-10T16:09:38.064Z,45.90
2019-06-10T16:11:16.300Z,45.57
2019-06-10T16:12:49.689Z,44.83
2019-06-10T16:14:25.482Z,44.57
2019-06-10T16:16:03.369Z,45.51
2019-06-10T16:17:38.400Z,44.22
2019-06-10T16:19:15.082Z,44.44
2019-06-10T16:20:52.817Z,44.78
2019-06-10T16:22:27.001Z,45.00
2019-06-10T16:24:02.808Z,45.35
2019-06-10T16:25:38.225Z,45.40
2019-06-10T16:27:14.223Z,45.15
2019-06-10T16:28:49.472Z,44.67
2019-06-10T16:30:25.926Z,45.62
2019-06-10T16:32:02.523Z,45.73
2019-06-10T16:33:37.297Z,45.78
2019-06-10T16:35:13.109Z,45.60
2019-06-10T16:36:47.820Z,46.36
2019-06-10T16:38:25.462Z,46.93
2019-06-10T16:39:59.455Z,47.62
2019-06-10T16:41:34.883Z,47.89
2019-06-10T16:43:09.598Z,48.01
2019-06-10T16:44:44.857Z,47.84
2019-06-10T16:46:20.301Z,47.96
2019-06-10T16:47:55.603Z,48.79
2019-06-10T16:49:32.508Z,48.93
2019-06-10T16:51:07.139Z,49.42
2019-06-10T16:52:43.084Z,49.47
2019-06-10T16:54:19.532Z,48.83
2019-06-10T16:55:54.193Z,49.57
2019-06-10T16:57:30.125Z,49.70
2019-06-10T16:59:04.908Z,50.61
2019-06-10T17:00:40.115Z,51.23
2019-06-10T17:02:14.748Z,51.73
2019-06-10T17:03:52.444Z,51.60
2019-06-10T17:05:27.588Z,52.33
2019-06-10T17:07:03.536Z,52.16
2019-06-10T17:08:38.217Z,52.45
2019-06-10T17:10:24.016Z,53.21
2019-06-10T17:12:02.217Z,53.61
2019-06-10T17:13:36.580Z,53.80
2019-06-10T17:15:12.999Z,54.09
2019-06-10T17:16:47.802Z,54.28
2019-06-10T17:18:24.707Z,54.37
2019-06-10T17:19:59.382Z,54.51
2019-06-10T17:21:34.854Z,54.09
2019-06-10T17:23:26.620Z,54.38
2019-06-10T17:24:59.193Z,54.83
2019-06-10T17:26:37.808Z,54.94
2019-06-10T17:28:18.309Z,55.40
2019-06-10T17:29:47.080Z,55.31
2019-06-10T17:31:25.778Z,55.00
2019-06-10T17:32:58.701Z,55.55
2019-06-10T17:34:34.200Z,55.63
2019-06-10T17:36:08.918Z,56.55
2019-06-10T17:37:44.128Z,56.43
2019-06-10T17:39:18.867Z,57.32
2019-06-10T17:40:54.178Z,57.26
2019-06-10T17:42:34.553Z,57.37
2019-06-10T17:44:06.303Z,57.07
2019-06-10T17:45:42.198Z,57.31
2019-06-10T17:47:18.494Z,56.96
2019-06-10T17:48:53.153Z,56.38
2019-06-10T17:50:28.487Z,56.64
2019-06-10T17:52:03.445Z,57.02
2019-06-10T17:53:38.682Z,57.08
2019-06-10T17:55:13.820Z,57.09
2019-06-10T17:56:49.037Z,57.11
2019-06-10T17:58:39.352Z,57.32
2019-06-10T18:00:07.327Z,57.40
2019-06-10T18:01:38.700Z,57.09
2019-06-10T18:03:14.209Z,57.35
2019-06-10T18:04:49.177Z,57.55
2019-06-10T18:06:25.895Z,57.72
2019-06-10T18:08:02.334Z,58.08
2019-06-10T18:09:37.801Z,58.54
2019-06-10T18:11:13.021Z,58.69
2019-06-10T18:12:48.767Z,59.25
2019-06-10T18:14:24.530Z,60.00
2019-06-10T18:16:02.565Z,60.33
2019-06-10T18:17:37.702Z,60.64
2019-06-10T18:19:13.188Z,60.54
2019-06-10T18:20:48.052Z,61.06
2019-06-10T18:22:24.397Z,61.25
2019-06-10T18:24:05.046Z,61.31
2019-06-10T18:25:37.035Z,61.68
2019-06-10T18:27:12.750Z,61.64
2019-06-10T18:29:08.539Z,61.19
2019-06-10T18:30:25.131Z,61.45
2019-06-10T18:32:03.469Z,61.16
2019-06-10T18:33:38.755Z,60.99
2019-06-10T18:35:14.638Z,60.97
2019-06-10T18:36:52.011Z,60.85
2019-06-10T18:38:27.343Z,60.68
2019-06-10T18:40:02.951Z,60.37
2019-06-10T18:41:41.995Z,60.23
2019-06-10T18:43:18.274Z,60.20
2019-06-10T18:44:54.028Z,60.19
2019-06-10T18:46:29.936Z,60.03
2019-06-10T18:48:06.367Z,60.26
2019-06-10T18:49:43.254Z,60.46
2019-06-10T18:51:20.043Z,60.62
2019-06-10T18:52:57.367Z,60.39
2019-06-10T18:54:35.334Z,60.49
2019-06-10T18:56:09.260Z,60.65
2019-06-10T18:57:44.595Z,60.64
2019-06-10T18:59:21.159Z,61.04
2019-06-10T19:01:04.036Z,61.25
2019-06-10T19:02:34.447Z,61.41
2019-06-10T19:04:09.819Z,61.33
2019-06-10T19:05:44.777Z,62.08
2019-06-10T19:07:22.571Z,62.25
2019-06-10T19:08:56.926Z,62.14
2019-06-10T19:10:34.300Z,62.44
2019-06-10T19:12:09.107Z,62.63
2019-06-10T19:13:44.541Z,62.04
2019-06-10T19:15:19.587Z,61.72
2019-06-10T19:16:55.043Z,63.27
2019-06-10T19:18:29.962Z,64.03
2019-06-10T19:20:05.950Z,64.63
2019-06-10T19:21:43.542Z,65.04
2019-06-10T19:23:17.880Z,65.37
2019-06-10T19:24:53.083Z,65.44
2019-06-10T19:26:28.753Z,65.20
2019-06-10T19:28:03.470Z,65.74
2019-06-10T19:29:45.464Z,65.67
2019-06-10T19:31:15.165Z,65.51
2019-06-10T19:32:52.696Z,65.93
2019-06-10T19:34:26.699Z,65.89
2019-06-10T19:36:02.352Z,65.98
2019-06-10T19:37:37.808Z,65.93
2019-06-10T19:39:14.284Z,65.07
2019-06-10T19:40:48.912Z,66.08
2019-06-10T19:42:24.157Z,66.21
2019-06-10T19:43:58.804Z,66.41
2019-06-10T19:47:26.414Z,65.61
2019-06-10T19:49:04.180Z,65.81
2019-06-10T19:50:39.417Z,65.87
2019-06-10T19:52:14.890Z,65.79
2019-06-10T19:53:49.572Z,65.47
2019-06-10T19:55:25.771Z,65.29
2019-06-10T19:57:02.617Z,64.97
2019-06-10T19:58:38.227Z,64.88
2019-06-10T20:00:14.337Z,65.25
2019-06-10T20:01:49.756Z,65.20
2019-06-10T20:03:24.390Z,65.56
2019-06-10T20:05:02.170Z,65.57
2019-06-10T20:06:36.476Z,65.79
2019-06-10T20:08:12.256Z,66.07
2019-06-10T20:09:46.901Z,65.71
2019-06-10T20:11:22.871Z,65.90
2019-06-10T20:12:57.752Z,66.13
2019-06-10T20:14:34.323Z,67.51
2019-06-10T20:16:12.054Z,67.86
2019-06-10T20:17:49.332Z,68.91
2019-06-10T20:19:24.038Z,70.78
2019-06-10T20:20:59.354Z,71.90
2019-06-10T20:22:33.998Z,72.50
2019-06-10T20:24:09.305Z,72.96
2019-06-10T20:25:46.755Z,74.11
2019-06-10T20:27:22.645Z,71.48
2019-06-10T20:28:57.297Z,73.39
2019-06-10T20:30:33.221Z,76.35
2019-06-10T20:32:10.315Z,76.38
2019-06-10T20:33:46.002Z,77.38
2019-06-10T20:35:23.206Z,77.31
2019-06-10T20:36:58.763Z,77.36